Time;durP1;ratioP1;P1;durP2;ratioP2;P2;SDS_P1;SDS_P2;PMS_P1;PMS_P2;Temp;Humidity;BMP_temperature;BMP_pressure;BME280_temperature;BME280_humidity;BME280_pressure;Samples;Min_cycle;Max_cycle;Signal;HPM_P1;HPM_P2
2023/07/24 00:01:15;;;;;;;;;;;;;;;17.02;75.81;100329.75;108648;1261;125609;-89
2023/07/24 00:03:47;;;;;;;;;;;;;;;16.95;75.89;100330.16;108673;1263;60160;-90
2023/07/24 00:06:15;;;;;;;;;;;;;;;16.88;76.00;100333.59;108528;1262;125166;-90
2023/07/24 00:08:43;;;;;;;;;;;;;;;16.84;76.15;100335.38;108657;1261;75580;-90
2023/07/24 00:11:10;;;;;;;;;;;;;;;16.81;76.36;100324.59;108716;1261;65977;-90
2023/07/24 00:13:40;;;;;;;;;;;;;;;16.83;76.51;100324.92;108630;1260;74017;-90
2023/07/24 00:16:08;;;;;;;;;;;;;;;16.84;76.69;100323.15;108779;1260;59880;-85
2023/07/24 00:18:35;;;;;;;;;;;;;;;16.85;76.69;100318.70;108447;1261;128373;-85
2023/07/24 00:21:02;;;;;;;;;;;;;;;16.84;76.66;100309.67;108667;1260;73114;-86
2023/07/24 00:23:29;;;;;;;;;;;;;;;16.81;76.59;100309.67;108413;1266;125753;-86
2023/07/24 00:25:59;;;;;;;;;;;;;;;16.79;76.69;100310.75;108489;1260;71430;-85
2023/07/24 00:28:26;;;;;;;;;;;;;;;16.75;76.76;100310.25;108563;1262;60044;-85
2023/07/24 00:30:54;;;;;;;;;;;;;;;16.69;76.79;100314.72;108507;1260;125482;-86
2023/07/24 00:33:28;;;;;;;;;;;;;;;16.67;76.94;100320.59;108659;1261;75862;-89
2023/07/24 00:35:58;;;;;;;;;;;;;;;16.65;77.03;100316.35;108588;1261;125678;-90
2023/07/24 00:38:25;;;;;;;;;;;;;;;16.61;76.93;100307.88;108634;1260;72585;-89
2023/07/24 00:40:52;;;;;;;;;;;;;;;16.55;76.87;100311.81;108612;1262;59922;-90
2023/07/24 00:43:19;;;;;;;;;;;;;;;16.47;76.93;100310.43;108556;1260;125319;-89
2023/07/24 00:45:46;;;;;;;;;;;;;;;16.43;76.99;100308.69;108686;1260;74171;-90
2023/07/24 00:48:13;;;;;;;;;;;;;;;16.39;77.12;100311.55;108714;1260;125728;-90
2023/07/24 00:50:40;;;;;;;;;;;;;;;16.36;77.23;100314.05;108705;1260;70641;-90
2023/07/24 00:53:07;;;;;;;;;;;;;;;16.34;77.31;100314.77;108686;1261;60293;-90
2023/07/24 00:55:34;;;;;;;;;;;;;;;16.31;77.40;100318.84;108548;1263;125112;-90
2023/07/24 00:58:01;;;;;;;;;;;;;;;16.29;77.49;100309.48;108783;1262;73195;-90
2023/07/24 01:00:28;;;;;;;;;;;;;;;16.26;77.45;100310.73;108684;1261;125574;-89
2023/07/24 01:02:55;;;;;;;;;;;;;;;16.21;77.47;100313.07;108660;1263;70980;-90
2023/07/24 01:05:22;;;;;;;;;;;;;;;16.15;77.53;100312.20;108520;1262;125324;-90
2023/07/24 01:07:49;;;;;;;;;;;;;;;16.10;77.58;100310.09;108683;1262;60525;-89
2023/07/24 01:10:16;;;;;;;;;;;;;;;16.06;77.62;100309.96;108754;1261;74193;-88
2023/07/24 01:12:59;;;;;;;;;;;;;;;16.01;77.67;100309.98;108569;1261;125402;-90
2023/07/24 01:15:38;;;;;;;;;;;;;;;15.98;77.74;100305.56;108710;1260;71516;-90
2023/07/24 01:18:08;;;;;;;;;;;;;;;15.94;77.83;100299.05;108452;1261;126856;-90
2023/07/24 01:20:35;;;;;;;;;;;;;;;15.92;77.89;100296.56;108561;1260;60156;-86
2023/07/24 01:23:06;;;;;;;;;;;;;;;15.91;77.94;100290.37;108686;1260;74168;-89
2023/07/24 01:25:36;;;;;;;;;;;;;;;15.88;77.92;100284.19;108677;1262;125188;-85
2023/07/24 01:28:07;;;;;;;;;;;;;;;15.83;77.98;100280.67;108641;1264;71626;-85
2023/07/24 01:30:36;;;;;;;;;;;;;;;15.81;77.95;100284.58;108665;1260;125687;-89
2023/07/24 01:33:03;;;;;;;;;;;;;;;15.79;78.04;100288.65;108663;1260;59844;-88
2023/07/24 01:35:34;;;;;;;;;;;;;;;15.79;78.20;100288.84;108392;1260;125669;-84
2023/07/24 01:38:00;;;;;;;;;;;;;;;15.79;78.28;100285.64;108699;1261;66091;-89
2023/07/24 01:40:27;;;;;;;;;;;;;;;15.80;78.40;100279.80;108583;1261;71706;-88
2023/07/24 01:42:54;;;;;;;;;;;;;;;15.81;78.48;100276.79;108478;1262;125753;-88
2023/07/24 01:45:25;;;;;;;;;;;;;;;15.84;78.49;100277.13;108696;1265;60222;-86
2023/07/24 01:47:52;;;;;;;;;;;;;;;15.83;78.33;100269.17;108479;1262;125804;-90
2023/07/24 01:50:19;;;;;;;;;;;;;;;15.79;78.20;100263.71;108592;1266;67658;-86
2023/07/24 01:52:49;;;;;;;;;;;;;;;15.74;78.25;100264.07;108621;1265;71173;-90
2023/07/24 01:55:18;;;;;;;;;;;;;;;15.68;78.21;100263.70;108509;1261;125261;-87
2023/07/24 01:57:47;;;;;;;;;;;;;;;15.63;78.22;100261.95;108628;1260;59974;-85
2023/07/24 02:00:17;;;;;;;;;;;;;;;15.58;78.31;100256.85;108571;1261;125606;-88
2023/07/24 02:02:44;;;;;;;;;;;;;;;15.52;78.27;100262.53;108577;1262;67101;-88
2023/07/24 02:05:14;;;;;;;;;;;;;;;15.47;78.27;100262.19;108599;1263;72495;-88
2023/07/24 02:07:41;;;;;;;;;;;;;;;15.40;78.35;100265.40;108614;1262;125831;-89
2023/07/24 02:10:09;;;;;;;;;;;;;;;15.35;78.43;100260.98;108656;1260;60163;-85
2023/07/24 02:12:36;;;;;;;;;;;;;;;15.31;78.45;100259.77;108501;1262;125683;-84
2023/07/24 02:15:04;;;;;;;;;;;;;;;15.26;78.44;100256.05;108654;1264;65573;-89
2023/07/24 02:17:31;;;;;;;;;;;;;;;15.22;78.61;100256.95;108612;1265;125418;-89
2023/07/24 02:19:59;;;;;;;;;;;;;;;15.19;78.67;100257.84;108634;1265;60245;-85
2023/07/24 02:22:26;;;;;;;;;;;;;;;15.17;78.72;100261.02;108647;1264;59916;-84
2023/07/24 02:24:53;;;;;;;;;;;;;;;15.14;78.73;100257.85;108406;1262;125693;-84
2023/07/24 02:27:34;;;;;;;;;;;;;;;15.13;78.84;100257.15;108692;1262;67074;-85
2023/07/24 02:30:07;;;;;;;;;;;;;;;15.14;79.03;100256.61;108387;1261;126280;-84
2023/07/24 02:32:36;;;;;;;;;;;;;;;15.16;79.05;100254.85;108582;1260;59951;-84
2023/07/24 02:35:03;;;;;;;;;;;;;;;15.17;78.98;100253.95;108738;1260;60105;-84
2023/07/24 02:37:30;;;;;;;;;;;;;;;15.15;79.10;100255.38;108637;1261;125381;-84
2023/07/24 02:39:57;;;;;;;;;;;;;;;15.13;79.02;100254.14;108645;1261;65760;-88
2023/07/24 02:42:24;;;;;;;;;;;;;;;15.12;79.06;100252.72;108612;1261;125996;-89
2023/07/24 02:44:53;;;;;;;;;;;;;;;15.11;79.19;100253.27;108708;1262;60101;-88
2023/07/24 02:47:19;;;;;;;;;;;;;;;15.10;79.16;100250.09;108717;1264;59876;-89
2023/07/24 02:49:46;;;;;;;;;;;;;;;15.08;79.10;100244.61;108584;1264;125391;-89
2023/07/24 02:52:14;;;;;;;;;;;;;;;15.07;79.16;100246.91;108703;1261;66087;-89
2023/07/24 02:54:41;;;;;;;;;;;;;;;15.06;79.20;100246.90;108573;1262;125508;-89
2023/07/24 02:57:08;;;;;;;;;;;;;;;15.06;79.25;100246.72;108534;1261;60761;-89
2023/07/24 02:59:35;;;;;;;;;;;;;;;15.07;79.25;100247.95;108537;1263;125213;-89
2023/07/24 03:02:02;;;;;;;;;;;;;;;15.08;79.44;100248.84;108679;1262;75554;-88
2023/07/24 03:04:29;;;;;;;;;;;;;;;15.12;79.62;100249.19;108659;1260;65794;-88
2023/07/24 03:06:56;;;;;;;;;;;;;;;15.18;79.72;100251.30;108468;1260;125420;-89
2023/07/24 03:09:23;;;;;;;;;;;;;;;15.25;79.76;100252.70;108548;1262;60153;-89
2023/07/24 03:11:50;;;;;;;;;;;;;;;15.32;79.81;100250.39;108632;1262;125276;-89
2023/07/24 03:14:16;;;;;;;;;;;;;;;15.42;79.95;100250.70;108714;1261;75286;-88
2023/07/24 03:16:43;;;;;;;;;;;;;;;15.50;79.79;100253.17;108603;1261;66592;-88
2023/07/24 03:19:14;;;;;;;;;;;;;;;15.55;79.77;100252.98;108556;1260;125627;-89
2023/07/24 03:21:40;;;;;;;;;;;;;;;15.61;79.60;100254.71;108652;1262;60018;-88
2023/07/24 03:24:07;;;;;;;;;;;;;;;15.66;79.51;100257.17;108473;1262;125360;-89
2023/07/24 03:26:34;;;;;;;;;;;;;;;15.70;79.45;100247.96;108703;1260;75997;-89
2023/07/24 03:29:01;;;;;;;;;;;;;;;15.76;79.52;100240.72;108582;1262;66073;-89
2023/07/24 03:31:28;;;;;;;;;;;;;;;15.82;79.48;100240.17;108411;1262;125346;-89
2023/07/24 03:33:55;;;;;;;;;;;;;;;15.89;79.39;100229.16;108759;1264;59934;-89
2023/07/24 03:36:23;;;;;;;;;;;;;;;15.97;79.42;100232.83;108599;1262;125615;-88
2023/07/24 03:38:50;;;;;;;;;;;;;;;16.06;79.27;100233.84;108605;1260;75488;-88
2023/07/24 03:41:17;;;;;;;;;;;;;;;16.13;79.24;100236.10;108576;1261;65924;-89
2023/07/24 03:43:45;;;;;;;;;;;;;;;16.21;79.16;100233.74;108611;1265;124841;-89
2023/07/24 03:46:12;;;;;;;;;;;;;;;16.26;79.00;100238.33;108632;1265;60034;-89
2023/07/24 03:48:38;;;;;;;;;;;;;;;16.30;78.88;100238.48;108462;1266;125109;-88
2023/07/24 03:51:07;;;;;;;;;;;;;;;16.36;78.76;100239.67;108546;1260;75536;-90
2023/07/24 03:53:34;;;;;;;;;;;;;;;16.41;78.54;100243.17;108477;1262;125410;-88
2023/07/24 03:56:00;;;;;;;;;;;;;;;16.45;78.56;100240.68;108719;1262;73293;-89
2023/07/24 03:58:29;;;;;;;;;;;;;;;16.51;78.44;100241.16;108668;1262;59949;-89
2023/07/24 04:00:56;;;;;;;;;;;;;;;16.56;78.36;100240.96;108670;1261;124182;-89
2023/07/24 04:03:23;;;;;;;;;;;;;;;16.64;78.40;100239.28;108631;1261;75536;-89
2023/07/24 04:05:50;;;;;;;;;;;;;;;16.75;78.23;100240.44;108531;1260;125486;-89
2023/07/24 04:08:17;;;;;;;;;;;;;;;17.11;79.36;100243.15;108534;1264;73021;-90
2023/07/24 04:10:44;;;;;;;;;;;;;;;18.14;80.68;100239.08;108561;1261;59859;-89
2023/07/24 04:13:11;;;;;;;;;;;;;;;19.34;79.96;100235.70;108475;1261;125220;-89
2023/07/24 04:15:39;;;;;;;;;;;;;;;20.38;78.39;100232.28;108613;1264;74242;-90
2023/07/24 04:18:07;;;;;;;;;;;;;;;21.36;77.20;100226.76;108663;1261;124808;-89
2023/07/24 04:20:34;;;;;;;;;;;;;;;22.70;76.80;100225.39;108601;1262;72760;-89
2023/07/24 04:23:01;;;;;;;;;;;;;;;23.98;74.43;100221.35;108679;1261;59949;-90
2023/07/24 04:25:27;;;;;;;;;;;;;;;25.33;73.29;100225.30;108657;1264;124765;-90
2023/07/24 04:27:54;;;;;;;;;;;;;;;26.73;70.83;100227.02;108761;1261;74641;-90
2023/07/24 04:30:21;;;;;;;;;;;;;;;27.73;68.26;100223.83;108652;1261;124777;-91
2023/07/24 04:32:49;;;;;;;;;;;;;;;28.53;66.05;100229.98;108782;1261;62773;-90
2023/07/24 04:35:16;;;;;;;;;;;;;;;29.01;63.66;100236.76;108583;1262;60140;-90
2023/07/24 04:37:43;;;;;;;;;;;;;;;29.33;61.93;100230.20;108523;1262;124384;-92
2023/07/24 04:40:10;;;;;;;;;;;;;;;29.58;60.85;100232.06;108540;1262;66668;-91
2023/07/24 04:42:37;;;;;;;;;;;;;;;30.28;60.16;100227.78;108533;1262;124512;-91
2023/07/24 04:45:04;;;;;;;;;;;;;;;31.40;59.19;100218.22;108610;1260;62796;-93
2023/07/24 04:47:31;;;;;;;;;;;;;;;32.70;57.63;100216.25;108553;1261;124715;-92
2023/07/24 04:49:58;;;;;;;;;;;;;;;33.99;56.17;100208.67;108681;1266;59788;-91
2023/07/24 04:52:25;;;;;;;;;;;;;;;35.26;53.96;100202.00;108774;1261;65488;-91
2023/07/24 04:54:52;;;;;;;;;;;;;;;35.54;50.97;100203.08;108578;1261;124656;-92
2023/07/24 04:57:20;;;;;;;;;;;;;;;34.86;49.06;100202.77;108644;1262;64263;-89
2023/07/24 04:59:46;;;;;;;;;;;;;;;33.61;48.01;100201.92;108548;1261;124096;-91
2023/07/24 05:02:13;;;;;;;;;;;;;;;32.32;47.85;100207.30;108630;1267;59988;-92
2023/07/24 05:04:41;;;;;;;;;;;;;;;31.35;48.47;100214.98;108676;1264;66868;-91
2023/07/24 05:07:08;;;;;;;;;;;;;;;30.95;49.11;100214.85;108578;1262;124663;-92
2023/07/24 05:09:35;;;;;;;;;;;;;;;30.88;49.01;100222.59;108683;1261;64132;-91
2023/07/24 05:12:05;;;;;;;;;;;;;;;30.39;48.47;100227.79;108379;1266;180879;-85
2023/07/24 05:14:32;;;;;;;;;;;;;;;29.49;48.47;100223.19;108547;1264;60198;-85
2023/07/24 05:16:59;;;;;;;;;;;;;;;28.59;49.06;100217.36;108568;1263;66307;-91
2023/07/24 05:19:26;;;;;;;;;;;;;;;27.83;49.51;100214.95;108560;1261;124700;-91
2023/07/24 05:21:53;;;;;;;;;;;;;;;27.11;50.22;100216.47;108737;1261;71852;-91
2023/07/24 05:24:20;;;;;;;;;;;;;;;26.48;50.91;100215.87;108535;1261;124770;-91
2023/07/24 05:26:47;;;;;;;;;;;;;;;25.83;51.56;100216.29;108651;1261;59821;-91
2023/07/24 05:29:14;;;;;;;;;;;;;;;25.34;52.30;100218.30;108735;1264;75821;-91
2023/07/24 05:31:42;;;;;;;;;;;;;;;25.06;53.25;100218.08;108552;1260;124559;-90
2023/07/24 05:34:11;;;;;;;;;;;;;;;25.14;53.87;100216.84;108755;1261;71347;-92
2023/07/24 05:36:46;;;;;;;;;;;;;;;25.27;54.11;100221.12;108427;1263;124480;-92
2023/07/24 05:39:13;;;;;;;;;;;;;;;25.18;53.79;100227.79;108538;1261;59971;-91
2023/07/24 05:41:40;;;;;;;;;;;;;;;24.99;53.88;100233.24;108590;1261;124643;-92
2023/07/24 05:44:07;;;;;;;;;;;;;;;24.78;54.17;100228.95;108652;1263;67052;-92
2023/07/24 05:46:34;;;;;;;;;;;;;;;24.64;54.31;100228.27;108579;1260;71838;-91
2023/07/24 05:49:01;;;;;;;;;;;;;;;24.51;54.67;100225.75;108663;1260;124421;-91
2023/07/24 05:51:30;;;;;;;;;;;;;;;24.34;55.11;100226.42;108672;1261;60181;-91
2023/07/24 05:53:57;;;;;;;;;;;;;;;24.17;55.40;100224.77;108615;1260;124837;-91
2023/07/24 05:56:24;;;;;;;;;;;;;;;24.02;55.56;100226.27;108545;1260;67574;-86
2023/07/24 05:58:51;;;;;;;;;;;;;;;23.95;55.95;100222.42;108453;1260;72830;-86
2023/07/24 06:01:17;;;;;;;;;;;;;;;23.97;56.32;100224.13;108557;1260;124965;-86
2023/07/24 06:03:44;;;;;;;;;;;;;;;23.99;56.33;100222.10;108715;1260;60148;-86
2023/07/24 06:06:11;;;;;;;;;;;;;;;23.93;56.38;100217.64;108497;1261;124482;-86
2023/07/24 06:08:52;;;;;;;;;;;;;;;;;;;;;
2023/07/24 06:11:22;;;;;;;;;;;;;;;23.77;56.49;100216.98;108510;1263;73225;-86
2023/07/24 06:13:49;;;;;;;;;;;;;;;23.66;56.85;100219.38;108535;1263;124753;-86
2023/07/24 06:16:16;;;;;;;;;;;;;;;23.61;57.00;100217.19;108635;1261;59892;-86
2023/07/24 06:18:43;;;;;;;;;;;;;;;23.56;56.89;100214.37;108622;1260;125091;-86
2023/07/24 06:21:10;;;;;;;;;;;;;;;23.50;57.12;100212.63;108686;1261;67113;-86
2023/07/24 06:23:37;;;;;;;;;;;;;;;23.46;57.24;100215.27;108521;1260;124750;-86
2023/07/24 06:26:04;;;;;;;;;;;;;;;23.46;57.58;100217.41;108649;1264;60007;-86
2023/07/24 06:28:33;;;;;;;;;;;;;;;23.50;57.75;100214.77;108609;1260;60043;-86
2023/07/24 06:31:00;;;;;;;;;;;;;;;23.56;57.86;100213.46;108501;1261;125008;-86
2023/07/24 06:33:27;;;;;;;;;;;;;;;23.68;58.01;100209.25;108708;1264;67079;-86
2023/07/24 06:35:54;;;;;;;;;;;;;;;23.82;58.15;100211.95;108587;1260;125852;-86
2023/07/24 06:38:21;;;;;;;;;;;;;;;24.02;58.06;100216.05;108516;1264;60225;-86
2023/07/24 06:40:48;;;;;;;;;;;;;;;24.19;57.76;100218.61;108631;1260;60761;-86
2023/07/24 06:43:15;;;;;;;;;;;;;;;24.29;57.67;100223.58;108500;1260;124982;-85
2023/07/24 06:45:42;;;;;;;;;;;;;;;24.28;57.22;100219.31;108568;1260;66353;-85
2023/07/24 06:48:09;;;;;;;;;;;;;;;24.32;57.16;100212.55;108530;1267;124811;-85
2023/07/24 06:50:36;;;;;;;;;;;;;;;24.39;56.96;100204.14;108519;1260;59869;-86
2023/07/24 06:53:03;;;;;;;;;;;;;;;24.50;56.97;100210.37;108714;1264;60125;-91
2023/07/24 06:55:30;;;;;;;;;;;;;;;24.56;56.72;100207.08;108682;1260;124778;-91
2023/07/24 06:57:57;;;;;;;;;;;;;;;24.66;56.45;100208.31;108791;1260;67120;-90
2023/07/24 07:00:28;;;;;;;;;;;;;;;24.79;56.37;100214.16;108737;1260;124465;-91
2023/07/24 07:02:55;;;;;;;;;;;;;;;24.97;56.10;100215.55;108766;1261;59924;-91
2023/07/24 07:05:34;;;;;;;;;;;;;;;25.17;56.14;100210.05;108692;1260;60102;-91
2023/07/24 07:08:03;;;;;;;;;;;;;;;25.39;55.87;100211.83;108776;1260;75472;-91
2023/07/24 07:10:34;;;;;;;;;;;;;;;25.64;56.02;100210.64;108771;1260;65725;-91
2023/07/24 07:13:01;;;;;;;;;;;;;;;25.99;56.02;100211.94;108756;1260;124434;-90
2023/07/24 07:15:36;;;;;;;;;;;;;;;26.34;55.59;100204.88;108756;1260;59901;-91
2023/07/24 07:18:11;;;;;;;;;;;;;;;26.61;55.18;100199.40;108622;1260;124633;-92
2023/07/24 07:20:38;;;;;;;;;;;;;;;26.85;54.42;100199.64;108702;1261;74211;-92
2023/07/24 07:23:10;;;;;;;;;;;;;;;27.02;54.16;100194.42;108787;1260;66092;-90
2023/07/24 07:25:50;;;;;;;;;;;;;;;27.20;53.72;100186.30;108633;1260;124380;-91
2023/07/24 07:28:25;;;;;;;;;;;;;;;27.31;53.59;100190.77;108839;1260;60143;-90
2023/07/24 07:30:53;;;;;;;;;;;;;;;27.38;53.18;100188.39;108784;1260;124813;-92
2023/07/24 07:33:24;;;;;;;;;;;;;;;27.45;52.68;100189.50;108784;1260;74269;-91
2023/07/24 07:35:51;;;;;;;;;;;;;;;27.50;52.10;100189.89;108806;1260;124632;-91
2023/07/24 07:38:22;;;;;;;;;;;;;;;27.50;51.76;100187.77;108748;1260;62843;-91
2023/07/24 07:40:49;;;;;;;;;;;;;;;27.44;51.12;100185.90;108703;1260;59840;-91
2023/07/24 07:43:16;;;;;;;;;;;;;;;27.36;50.87;100182.91;108690;1260;124575;-91
2023/07/24 07:45:43;;;;;;;;;;;;;;;27.36;50.93;100179.52;108614;1261;65540;-91
2023/07/24 07:48:10;;;;;;;;;;;;;;;27.45;51.00;100179.71;108555;1260;124855;-92
2023/07/24 07:50:39;;;;;;;;;;;;;;;27.61;50.67;100174.74;108670;1260;71067;-91
2023/07/24 07:53:07;;;;;;;;;;;;;;;27.73;50.18;100174.58;108647;1261;59731;-91
2023/07/24 07:55:34;;;;;;;;;;;;;;;27.80;49.98;100177.31;108544;1261;124317;-92
2023/07/24 07:58:01;;;;;;;;;;;;;;;27.77;49.64;100176.73;108732;1261;65782;-92
2023/07/24 08:00:29;;;;;;;;;;;;;;;27.69;49.56;100176.42;108510;1263;124696;-91
2023/07/24 08:02:58;;;;;;;;;;;;;;;27.66;49.43;100173.70;108579;1261;72477;-91
2023/07/24 08:05:27;;;;;;;;;;;;;;;27.66;49.43;100173.90;108645;1260;59941;-92
2023/07/24 08:07:54;;;;;;;;;;;;;;;27.67;49.32;100169.73;108594;1260;124541;-92
2023/07/24 08:10:22;;;;;;;;;;;;;;;27.62;49.16;100168.02;108724;1264;74964;-90
2023/07/24 08:12:50;;;;;;;;;;;;;;;27.54;49.18;100164.47;108533;1262;124837;-91
2023/07/24 08:15:19;;;;;;;;;;;;;;;27.39;49.10;100161.35;108631;1260;72815;-91
2023/07/24 08:17:46;;;;;;;;;;;;;;;27.28;48.90;100156.15;108526;1261;124639;-92
2023/07/24 08:20:16;;;;;;;;;;;;;;;27.18;48.65;100154.00;108733;1262;59986;-91
2023/07/24 08:22:43;;;;;;;;;;;;;;;27.06;48.62;100156.23;108577;1260;75665;-92
2023/07/24 08:25:10;;;;;;;;;;;;;;;26.93;48.72;100160.30;108502;1260;124536;-92
2023/07/24 08:27:37;;;;;;;;;;;;;;;26.85;49.08;100159.27;108581;1260;72730;-92
2023/07/24 08:30:05;;;;;;;;;;;;;;;26.87;49.25;100156.86;108512;1260;124733;-92
2023/07/24 08:32:32;;;;;;;;;;;;;;;26.95;49.23;100151.76;108630;1260;60173;-92
2023/07/24 08:34:59;;;;;;;;;;;;;;;27.06;49.33;100149.55;108745;1261;75526;-92
2023/07/24 08:37:26;;;;;;;;;;;;;;;27.26;49.07;100152.30;108543;1260;124454;-91
2023/07/24 08:39:53;;;;;;;;;;;;;;;27.48;48.98;100148.95;108637;1260;72742;-92
2023/07/24 08:42:20;;;;;;;;;;;;;;;27.71;48.67;100146.08;108520;1262;124657;-91
2023/07/24 08:44:47;;;;;;;;;;;;;;;27.93;48.66;100136.92;108651;1261;59944;-91
2023/07/24 08:47:14;;;;;;;;;;;;;;;28.03;48.51;100131.65;108640;1260;65221;-92
2023/07/24 08:49:41;;;;;;;;;;;;;;;27.95;48.52;100126.54;108556;1262;124438;-92
2023/07/24 08:52:10;;;;;;;;;;;;;;;27.72;48.26;100121.49;108587;1260;62768;-92
2023/07/24 08:54:38;;;;;;;;;;;;;;;27.43;48.19;100118.44;108498;1260;124477;-86
2023/07/24 08:57:06;;;;;;;;;;;;;;;27.23;48.45;100113.01;108417;1260;60120;-91
2023/07/24 08:59:33;;;;;;;;;;;;;;;27.08;48.41;100119.19;108577;1261;75343;-93
2023/07/24 09:02:00;;;;;;;;;;;;;;;26.92;48.35;100116.64;108605;1260;67281;-91
2023/07/24 09:04:28;;;;;;;;;;;;;;;26.81;48.46;100113.77;108639;1262;72698;-91
2023/07/24 09:06:56;;;;;;;;;;;;;;;26.67;48.90;100114.34;108506;1260;124875;-86
2023/07/24 09:09:23;;;;;;;;;;;;;;;26.52;48.85;100112.73;108553;1262;59913;-86
2023/07/24 09:11:50;;;;;;;;;;;;;;;26.37;49.31;100107.92;108563;1260;125004;-86
2023/07/24 09:14:21;;;;;;;;;;;;;;;26.22;49.42;100104.73;108729;1260;66865;-92
2023/07/24 09:16:48;;;;;;;;;;;;;;;25.96;49.55;100100.95;108742;1260;72810;-91
2023/07/24 09:19:21;;;;;;;;;;;;;;;25.73;49.89;100093.45;108534;1260;124425;-91
2023/07/24 09:21:48;;;;;;;;;;;;;;;25.54;50.10;100089.67;108691;1260;59813;-92
2023/07/24 09:24:15;;;;;;;;;;;;;;;25.40;50.47;100089.77;108694;1260;124549;-92
2023/07/24 09:26:49;;;;;;;;;;;;;;;25.28;50.65;100088.01;108635;1260;64801;-91
2023/07/24 09:29:17;;;;;;;;;;;;;;;25.20;50.83;100086.89;108533;1260;70804;-90
2023/07/24 09:31:45;;;;;;;;;;;;;;;25.16;50.70;100089.96;108563;1260;124513;-91
2023/07/24 09:34:17;;;;;;;;;;;;;;;25.12;50.73;100083.50;108597;1260;60170;-91
2023/07/24 09:36:44;;;;;;;;;;;;;;;25.12;50.88;100081.20;108696;1260;124381;-91
2023/07/24 09:39:11;;;;;;;;;;;;;;;25.14;51.17;100078.23;108623;1260;67067;-90
2023/07/24 09:41:39;;;;;;;;;;;;;;;25.13;51.09;100075.91;108502;1262;124662;-90
2023/07/24 09:44:06;;;;;;;;;;;;;;;25.11;50.97;100071.51;108545;1261;60123;-90
2023/07/24 09:46:33;;;;;;;;;;;;;;;25.09;51.04;100069.11;108770;1261;59862;-90
2023/07/24 09:49:00;;;;;;;;;;;;;;;25.05;51.15;100069.13;108656;1260;125000;-90
2023/07/24 09:51:28;;;;;;;;;;;;;;;25.06;51.37;100060.65;108591;1260;65131;-91
2023/07/24 09:53:56;;;;;;;;;;;;;;;25.07;51.17;100057.91;108589;1261;124688;-91
2023/07/24 09:56:23;;;;;;;;;;;;;;;25.04;51.18;100055.15;108646;1262;59795;-90
2023/07/24 09:58:54;;;;;;;;;;;;;;;25.06;51.37;100059.95;108551;1262;59855;-90
2023/07/24 10:01:21;;;;;;;;;;;;;;;25.09;51.20;100057.83;108476;1260;124435;-91
2023/07/24 10:03:49;;;;;;;;;;;;;;;25.11;51.21;100051.98;108621;1260;67188;-90
2023/07/24 10:06:16;;;;;;;;;;;;;;;25.12;51.20;100044.21;108458;1260;124614;-91
2023/07/24 10:08:43;;;;;;;;;;;;;;;25.16;51.23;100034.50;108647;1260;59850;-91
2023/07/24 10:11:11;;;;;;;;;;;;;;;25.25;51.53;100029.44;108639;1260;60064;-90
2023/07/24 10:13:38;;;;;;;;;;;;;;;25.31;51.13;100028.77;108533;1261;124579;-91
2023/07/24 10:16:06;;;;;;;;;;;;;;;25.36;51.14;100031.45;108602;1261;65484;-91
2023/07/24 10:18:34;;;;;;;;;;;;;;;25.43;51.34;100025.54;108550;1261;124648;-91
2023/07/24 10:21:02;;;;;;;;;;;;;;;25.48;51.15;100016.66;108655;1260;59871;-91
2023/07/24 10:23:29;;;;;;;;;;;;;;;25.49;51.06;100012.13;108548;1263;59910;-90
2023/07/24 10:26:01;;;;;;;;;;;;;;;25.53;51.22;100016.79;108637;1260;124421;-91
2023/07/24 10:28:47;;;;;;;;;;;;;;;25.55;50.90;100014.90;108582;1261;67042;-90
2023/07/24 10:31:21;;;;;;;;;;;;;;;25.55;50.99;100012.39;108556;1261;124521;-90
2023/07/24 10:33:48;;;;;;;;;;;;;;;25.59;51.12;100007.16;108638;1260;59790;-90
2023/07/24 10:36:19;;;;;;;;;;;;;;;25.65;51.32;100001.48;108540;1262;124889;-91
2023/07/24 10:38:46;;;;;;;;;;;;;;;25.73;51.22;99999.45;108610;1262;76674;-90
2023/07/24 10:41:14;;;;;;;;;;;;;;;25.84;51.43;99998.01;108746;1261;67070;-90
2023/07/24 10:43:43;;;;;;;;;;;;;;;25.92;51.08;99987.53;108464;1260;123138;-91
2023/07/24 10:46:10;;;;;;;;;;;;;;;25.96;51.08;99985.21;108568;1261;60095;-91
2023/07/24 10:48:37;;;;;;;;;;;;;;;26.00;50.97;99980.34;108498;1261;124506;-92
2023/07/24 10:51:10;;;;;;;;;;;;;;;26.03;51.01;99980.36;108436;1260;253167;-92
2023/07/24 10:53:37;;;;;;;;;;;;;;;26.07;50.92;99976.95;108633;1260;124695;-91
2023/07/24 10:56:05;;;;;;;;;;;;;;;26.16;50.79;99979.29;108560;1262;72728;-91
2023/07/24 10:58:32;;;;;;;;;;;;;;;26.30;50.74;99983.81;108614;1260;60035;-91
2023/07/24 11:00:59;;;;;;;;;;;;;;;26.37;50.15;99976.25;108501;1261;124335;-91
2023/07/24 11:03:26;;;;;;;;;;;;;;;26.42;50.04;99974.57;108645;1260;74204;-91
2023/07/24 11:05:54;;;;;;;;;;;;;;;26.47;49.75;99975.55;108667;1260;124544;-91
2023/07/24 11:08:22;;;;;;;;;;;;;;;26.53;49.74;99974.13;108608;1261;72538;-91
2023/07/24 11:10:52;;;;;;;;;;;;;;;26.68;49.91;99974.27;108764;1260;59965;-91
2023/07/24 11:13:20;;;;;;;;;;;;;;;26.83;49.75;99970.38;108544;1260;124594;-91
2023/07/24 11:15:47;;;;;;;;;;;;;;;26.89;49.39;99969.51;108632;1260;74559;-91
2023/07/24 11:18:16;;;;;;;;;;;;;;;26.92;49.33;99970.58;108630;1260;124418;-91
2023/07/24 11:20:52;;;;;;;;;;;;;;;27.11;49.49;99970.48;108643;1261;71377;-92
2023/07/24 11:23:19;;;;;;;;;;;;;;;27.46;48.97;99970.84;108557;1261;59903;-91
2023/07/24 11:25:46;;;;;;;;;;;;;;;27.79;48.77;99975.80;108700;1260;124366;-91
2023/07/24 11:28:14;;;;;;;;;;;;;;;28.09;48.48;99972.27;108802;1261;66728;-91
2023/07/24 11:30:41;;;;;;;;;;;;;;;28.33;48.23;99973.63;108595;1260;124516;-92
2023/07/24 11:33:10;;;;;;;;;;;;;;;28.45;47.64;99974.55;108691;1260;64109;-93
2023/07/24 11:35:39;;;;;;;;;;;;;;;28.44;47.17;99971.37;108665;1260;59907;-91
2023/07/24 11:38:07;;;;;;;;;;;;;;;28.32;46.97;99973.35;108696;1260;59810;-92
2023/07/24 11:40:35;;;;;;;;;;;;;;;28.25;46.83;99971.45;108696;1260;74260;-91
2023/07/24 11:43:03;;;;;;;;;;;;;;;28.18;47.00;99975.09;108574;1260;124356;-91
2023/07/24 11:45:30;;;;;;;;;;;;;;;28.03;46.84;99976.54;108670;1260;72258;-91
2023/07/24 11:47:57;;;;;;;;;;;;;;;27.84;47.27;99973.17;108505;1260;124610;-91
2023/07/24 11:50:24;;;;;;;;;;;;;;;27.72;47.28;99980.15;108619;1262;59807;-90
2023/07/24 11:52:53;;;;;;;;;;;;;;;27.59;47.14;99974.05;108715;1260;74123;-90
2023/07/24 11:55:30;;;;;;;;;;;;;;;27.51;47.16;99970.39;108664;1260;124266;-91
2023/07/24 11:58:00;;;;;;;;;;;;;;;27.58;47.14;99974.10;108611;1260;72979;-91
2023/07/24 12:00:53;;;;;;;;;;;;;;;27.72;46.98;99968.23;108616;1260;124442;-91
2023/07/24 12:03:26;;;;;;;;;;;;;;;27.80;46.73;99957.70;108743;1260;59969;-90
2023/07/24 12:05:54;;;;;;;;;;;;;;;27.81;46.42;99958.38;108650;1263;124789;-91
2023/07/24 12:08:32;;;;;;;;;;;;;;;27.88;46.33;99959.56;108771;1260;64836;-92
2023/07/24 12:11:00;;;;;;;;;;;;;;;27.99;46.24;99959.70;108731;1260;72558;-91
2023/07/24 12:13:33;;;;;;;;;;;;;;;28.12;46.18;99957.79;108627;1260;124226;-86
2023/07/24 12:16:15;;;;;;;;;;;;;;;28.24;45.81;99947.51;108529;1261;60305;-86
2023/07/24 12:19:06;;;;;;;;;;;;;;;;;;;;;
2023/07/24 12:21:48;;;;;;;;;;;;;;;28.49;45.91;99945.42;108690;1260;59817;-85
2023/07/24 12:24:16;;;;;;;;;;;;;;;28.59;45.93;99944.11;108602;1260;124536;-86
2023/07/24 12:26:43;;;;;;;;;;;;;;;28.65;45.67;99940.70;108817;1260;60111;-85
2023/07/24 12:29:11;;;;;;;;;;;;;;;28.71;45.63;99950.77;108830;1260;60118;-85
2023/07/24 12:31:38;;;;;;;;;;;;;;;28.82;45.54;99947.86;108498;1262;124438;-85